Time;durP1;ratioP1;P1;durP2;ratioP2;P2;SDS_P1;SDS_P2;PMS_P1;PMS_P2;Temp;Humidity;BMP_temperature;BMP_pressure;BME280_temperature;BME280_humidity;BME280_pressure;Samples;Min_cycle;Max_cycle;Signal;HPM_P1;HPM_P2
2023/09/30 00:00:26;;;;;;;6.47;3.58;;;14.40;99.90;;;;;;5138434;27;20276;-34
2023/09/30 00:02:52;;;;;;;6.07;3.60;;;14.40;99.90;;;;;;5146305;27;20043;-35
2023/09/30 00:05:19;;;;;;;8.57;4.00;;;14.40;99.90;;;;;;5123472;27;20038;-35
2023/09/30 00:07:45;;;;;;;9.50;3.83;;;14.40;99.90;;;;;;5158487;27;20035;-35
2023/09/30 00:10:11;;;;;;;8.23;4.05;;;14.40;99.90;;;;;;5112260;27;20026;-36
2023/09/30 00:12:37;;;;;;;8.70;4.43;;;14.40;99.90;;;;;;5159689;27;20040;-35
2023/09/30 00:15:03;;;;;;;9.35;3.70;;;14.40;99.90;;;;;;5108637;27;20581;-37
2023/09/30 00:17:29;;;;;;;6.97;3.92;;;14.40;99.90;;;;;;5163864;27;20033;-35
2023/09/30 00:19:55;;;;;;;6.22;3.92;;;14.40;99.90;;;;;;5105353;27;20019;-36
2023/09/30 00:22:21;;;;;;;6.82;4.05;;;14.40;99.90;;;;;;5168067;27;20360;-35
2023/09/30 00:24:48;;;;;;;7.38;3.97;;;14.40;99.90;;;;;;5101066;27;20028;-36
2023/09/30 00:27:13;;;;;;;8.15;4.05;;;14.40;99.90;;;;;;5167239;27;20030;-36
2023/09/30 00:29:39;;;;;;;5.82;3.60;;;14.40;99.90;;;;;;5104799;27;20024;-35
2023/09/30 00:32:05;;;;;;;7.10;3.78;;;14.40;99.90;;;;;;5161306;27;20583;-35
2023/09/30 00:34:36;;;;;;;6.95;3.63;;;14.40;99.90;;;;;;5118138;27;20024;-36
2023/09/30 00:37:02;;;;;;;10.90;4.57;;;14.30;99.90;;;;;;5041668;28;20021;-35
2023/09/30 00:39:31;;;;;;;7.05;4.13;;;14.30;99.90;;;;;;5074716;27;20536;-36
2023/09/30 00:41:59;;;;;;;7.68;3.40;;;14.30;99.90;;;;;;5142700;27;20030;-36
2023/09/30 00:44:26;;;;;;;7.07;3.70;;;14.30;99.90;;;;;;5137534;27;20153;-37
2023/09/30 00:46:52;;;;;;;6.25;3.55;;;14.20;99.90;;;;;;5131793;27;20460;-36
2023/09/30 00:49:18;;;;;;;6.25;3.58;;;14.20;99.90;;;;;;5150337;27;20026;-35
2023/09/30 00:51:45;;;;;;;8.38;3.78;;;14.10;99.90;;;;;;5118472;27;20032;-35
2023/09/30 00:54:11;;;;;;;6.05;3.55;;;14.20;99.90;;;;;;5158379;27;20150;-35
2023/09/30 00:56:46;;;;;;;7.28;3.83;;;14.10;99.90;;;;;;5107642;27;20662;-51
2023/09/30 00:59:16;;;;;;;9.13;4.22;;;14.10;99.90;;;;;;5158839;27;20036;-35
2023/09/30 01:01:45;;;;;;;7.45;4.05;;;14.10;99.90;;;;;;5107721;27;20532;-35
2023/09/30 01:04:12;;;;;;;7.20;3.95;;;14.10;99.90;;;;;;5159582;27;20033;-35
2023/09/30 01:06:38;;;;;;;5.22;3.53;;;14.00;99.90;;;;;;5107841;27;20058;-36
2023/09/30 01:09:04;;;;;;;7.60;3.92;;;14.00;99.90;;;;;;5165830;27;20026;-38
2023/09/30 01:11:30;;;;;;;7.38;3.78;;;14.00;99.90;;;;;;5101359;27;20033;-39
2023/09/30 01:13:55;;;;;;;7.68;4.07;;;14.00;99.90;;;;;;5166995;27;20437;-35
2023/09/30 01:16:21;;;;;;;7.78;4.00;;;13.90;99.90;;;;;;5145528;27;20038;-37
2023/09/30 01:18:47;;;;;;;6.93;3.70;;;13.90;99.90;;;;;;5168579;27;20472;-35
2023/09/30 01:21:12;;;;;;;8.18;4.00;;;13.90;99.90;;;;;;5111122;27;20036;-35
2023/09/30 01:23:38;;;;;;;5.68;3.80;;;13.90;99.90;;;;;;5141531;27;20032;-36
2023/09/30 01:26:12;;;;;;;6.88;4.28;;;13.80;99.90;;;;;;5102233;27;20026;-39
2023/09/30 01:28:38;;;;;;;6.97;4.07;;;13.80;99.90;;;;;;5081021;27;20031;-35
2023/09/30 01:31:05;;;;;;;6.90;3.65;;;13.80;99.90;;;;;;5098373;27;20632;-35
2023/09/30 01:33:31;;;;;;;7.28;3.70;;;13.80;99.90;;;;;;5096380;27;20048;-36
2023/09/30 01:35:57;;;;;;;5.93;3.58;;;13.70;99.90;;;;;;5085694;27;20021;-36
2023/09/30 01:38:23;;;;;;;7.45;3.80;;;13.70;99.90;;;;;;5109640;27;20017;-34
2023/09/30 01:40:49;;;;;;;8.00;4.05;;;13.70;99.90;;;;;;5072002;27;20056;-36
2023/09/30 01:43:15;;;;;;;7.60;3.97;;;13.70;99.90;;;;;;5121686;27;20024;-37
2023/09/30 01:45:41;;;;;;;7.68;4.57;;;13.60;99.90;;;;;;5071687;27;20024;-35
2023/09/30 01:48:10;;;;;;;5.30;3.88;;;13.60;99.90;;;;;;5123401;27;20047;-35
2023/09/30 01:50:37;;;;;;;6.32;3.85;;;13.60;99.90;;;;;;5066857;27;20352;-34
2023/09/30 01:53:04;;;;;;;6.28;3.88;;;13.60;99.90;;;;;;5126775;27;20045;-36
2023/09/30 01:55:29;;;;;;;7.13;4.28;;;13.60;99.90;;;;;;5064206;28;20027;-35
2023/09/30 01:57:55;;;;;;;7.95;4.32;;;13.60;99.90;;;;;;5131286;27;20022;-35
2023/09/30 02:00:21;;;;;;;7.80;3.85;;;13.60;99.90;;;;;;5064218;28;20076;-35
2023/09/30 02:02:46;;;;;;;7.13;4.10;;;13.60;99.90;;;;;;5127541;27;20033;-35
2023/09/30 02:05:13;;;;;;;9.50;4.32;;;13.60;99.90;;;;;;5066359;27;20536;-35
2023/09/30 02:07:38;;;;;;;5.55;3.80;;;13.50;99.90;;;;;;5114048;27;20026;-35
2023/09/30 02:10:04;;;;;;;8.57;4.38;;;13.50;99.90;;;;;;5079689;27;20044;-35
2023/09/30 02:12:30;;;;;;;7.10;4.05;;;13.50;99.90;;;;;;5101818;27;20027;-35
2023/09/30 02:14:56;;;;;;;7.88;4.20;;;13.50;99.90;;;;;;5095191;27;20052;-35
2023/09/30 02:17:22;;;;;;;8.52;4.20;;;13.50;99.90;;;;;;5086497;27;20061;-36
2023/09/30 02:19:49;;;;;;;8.07;4.18;;;13.50;99.90;;;;;;5107986;27;20029;-37
2023/09/30 02:22:15;;;;;;;8.90;4.05;;;13.50;99.90;;;;;;5074055;27;20050;-36
2023/09/30 02:24:41;;;;;;;6.28;3.97;;;13.50;99.90;;;;;;5112327;27;20024;-36
2023/09/30 02:27:07;;;;;;;6.90;3.88;;;13.50;99.90;;;;;;5070907;27;20023;-35
2023/09/30 02:29:33;;;;;;;6.90;4.10;;;13.50;99.90;;;;;;5123828;27;20060;-35
2023/09/30 02:31:59;;;;;;;7.18;4.25;;;13.50;99.90;;;;;;5066125;27;20131;-34
2023/09/30 02:34:24;;;;;;;5.95;3.63;;;13.50;99.90;;;;;;5126090;27;20620;-44
2023/09/30 02:36:50;;;;;;;5.20;3.80;;;13.60;99.90;;;;;;5063217;28;20028;-34
2023/09/30 02:39:16;;;;;;;6.95;3.88;;;13.60;99.90;;;;;;5128141;27;20562;-34
2023/09/30 02:41:42;;;;;;;7.50;4.40;;;13.60;99.90;;;;;;5063891;27;20029;-35
2023/09/30 02:44:08;;;;;;;4.68;3.55;;;13.60;99.90;;;;;;5124754;27;20023;-35
2023/09/30 02:46:33;;;;;;;6.72;4.25;;;13.70;99.90;;;;;;5065389;27;20063;-36
2023/09/30 02:49:02;;;;;;;6.53;4.28;;;13.70;99.90;;;;;;5110184;27;20029;-37
2023/09/30 02:51:27;;;;;;;6.07;4.13;;;13.80;99.90;;;;;;5077002;27;20032;-35
2023/09/30 02:53:53;;;;;;;8.00;4.43;;;13.80;99.90;;;;;;5098137;27;20033;-35
2023/09/30 02:56:19;;;;;;;6.78;3.78;;;13.80;99.90;;;;;;5090797;27;20478;-35
2023/09/30 02:58:46;;;;;;;5.00;3.92;;;13.80;99.90;;;;;;5084295;27;20714;-35
2023/09/30 03:01:16;;;;;;;5.72;4.00;;;13.80;99.90;;;;;;5103713;27;20067;-34
2023/09/30 03:03:44;;;;;;;5.88;4.07;;;13.80;99.90;;;;;;5075112;27;20463;-34
2023/09/30 03:06:10;;;;;;;5.72;3.70;;;13.80;99.90;;;;;;5113487;27;20028;-35
2023/09/30 03:08:36;;;;;;;5.72;3.90;;;13.80;99.90;;;;;;5069777;27;20018;-35
2023/09/30 03:11:02;;;;;;;7.50;3.85;;;13.80;99.90;;;;;;5120491;27;20035;-34
2023/09/30 03:13:27;;;;;;;7.53;4.15;;;13.80;99.90;;;;;;5069661;27;20091;-35
2023/09/30 03:15:53;;;;;;;7.38;4.45;;;13.80;99.90;;;;;;5121253;27;20073;-36
2023/09/30 03:18:26;;;;;;;6.63;4.20;;;13.80;99.90;;;;;;5061796;28;20793;-35
2023/09/30 03:20:56;;;;;;;;;;;13.80;99.90;;;;;;5108374;27;20049;-34
2023/09/30 03:23:25;;;;;;;5.07;3.58;;;13.80;99.90;;;;;;5167986;27;19907;-36
2023/09/30 03:25:56;;;;;;;;;;;13.80;99.90;;;;;;5128453;27;20157;-35
2023/09/30 03:28:22;;;;;;;6.93;4.07;;;13.80;99.90;;;;;;5061891;28;20659;-36
2023/09/30 03:30:47;;;;;;;6.38;4.53;;;13.80;99.90;;;;;;5127932;27;20026;-35
2023/09/30 03:33:13;;;;;;;6.03;4.50;;;13.80;99.90;;;;;;5024615;28;1057971;-35
2023/09/30 03:35:38;;;;;;;7.57;4.35;;;13.80;99.90;;;;;;5115941;27;20145;-35
2023/09/30 03:38:04;;;;;;;7.53;4.65;;;13.80;99.90;;;;;;5075304;27;20048;-35
2023/09/30 03:40:33;;;;;;;7.35;4.45;;;13.70;99.90;;;;;;5102573;27;20026;-36
2023/09/30 03:42:59;;;;;;;5.15;3.90;;;13.80;99.90;;;;;;5086598;27;20028;-35
2023/09/30 03:45:25;;;;;;;5.32;4.18;;;13.70;99.90;;;;;;5090758;27;20023;-35
2023/09/30 03:47:51;;;;;;;5.13;4.03;;;13.80;99.90;;;;;;5100705;27;20028;-35
2023/09/30 03:50:17;;;;;;;7.22;4.72;;;13.80;99.90;;;;;;5075911;27;20491;-35
2023/09/30 03:52:44;;;;;;;7.32;4.30;;;13.70;99.90;;;;;;5114069;27;20043;-35
2023/09/30 03:55:14;;;;;;;8.10;4.93;;;13.80;99.90;;;;;;5070196;27;20083;-35
2023/09/30 03:57:40;;;;;;;7.85;4.78;;;13.80;99.90;;;;;;5120795;27;20020;-35
2023/09/30 04:00:06;;;;;;;6.22;4.88;;;13.70;99.90;;;;;;5068599;27;20440;-36
2023/09/30 04:02:35;;;;;;;5.90;4.68;;;13.80;99.90;;;;;;5120065;27;20027;-35
2023/09/30 04:05:05;;;;;;;7.35;5.30;;;13.80;99.90;;;;;;5061829;27;20024;-35
2023/09/30 04:07:31;;;;;;;8.48;5.00;;;13.70;99.90;;;;;;5104512;27;20026;-36
2023/09/30 04:09:56;;;;;;;8.30;4.75;;;13.80;99.90;;;;;;5168087;27;20033;-36
2023/09/30 04:12:25;;;;;;;6.68;4.80;;;13.80;99.90;;;;;;5101145;27;20036;-35
2023/09/30 04:14:52;;;;;;;7.50;4.82;;;13.70;99.90;;;;;;5168758;27;20109;-34
2023/09/30 04:17:17;;;;;;;6.05;4.43;;;13.70;99.90;;;;;;5101860;27;20037;-35
2023/09/30 04:19:46;;;;;;;7.20;4.93;;;13.70;99.90;;;;;;5166520;27;20091;-36
2023/09/30 04:22:12;;;;;;;7.22;4.97;;;13.70;99.90;;;;;;5113692;27;20495;-35
2023/09/30 04:24:39;;;;;;;8.10;5.47;;;13.70;99.90;;;;;;5106678;27;20650;-36
2023/09/30 04:27:06;;;;;;;6.68;4.72;;;13.70;99.90;;;;;;5102503;27;20014;-35
2023/09/30 04:29:31;;;;;;;6.90;5.05;;;13.70;99.90;;;;;;5086990;27;20470;-34
2023/09/30 04:31:57;;;;;;;6.90;5.28;;;13.70;99.90;;;;;;5088282;27;20036;-34
2023/09/30 04:34:22;;;;;;;6.82;4.93;;;13.70;99.90;;;;;;5129416;27;20029;-35
2023/09/30 04:36:48;;;;;;;6.40;4.95;;;13.70;99.90;;;;;;5154625;27;20026;-36
2023/09/30 04:39:15;;;;;;;7.93;5.65;;;13.70;99.90;;;;;;5114749;27;20093;-43
2023/09/30 04:41:43;;;;;;;8.60;5.70;;;13.70;99.90;;;;;;5159712;27;20474;-35
2023/09/30 04:44:09;;;;;;;7.25;5.70;;;13.70;99.90;;;;;;5108003;27;20401;-35
2023/09/30 04:46:35;;;;;;;7.15;5.30;;;13.60;99.90;;;;;;5160041;27;20481;-36
2023/09/30 04:49:04;;;;;;;9.82;6.20;;;13.60;99.90;;;;;;5108466;27;20018;-36
2023/09/30 04:51:30;;;;;;;7.18;5.57;;;13.60;99.90;;;;;;5168677;27;20026;-35
2023/09/30 04:53:57;;;;;;;8.35;5.85;;;13.60;99.90;;;;;;5100969;27;20022;-34
2023/09/30 04:56:23;;;;;;;7.30;5.50;;;13.60;99.90;;;;;;5167584;27;20093;-35
2023/09/30 04:58:48;;;;;;;8.38;6.43;;;13.60;99.90;;;;;;5100612;27;20104;-37
2023/09/30 05:01:14;;;;;;;8.27;6.00;;;13.60;99.90;;;;;;5167270;27;20034;-36
2023/09/30 05:03:39;;;;;;;8.68;6.38;;;13.60;99.90;;;;;;5110715;27;20027;-36
2023/09/30 05:06:05;;;;;;;10.48;5.35;;;13.60;99.90;;;;;;5156743;27;20045;-36
2023/09/30 05:08:31;;;;;;;8.00;5.88;;;13.60;99.90;;;;;;5123480;27;20039;-36
2023/09/30 05:10:56;;;;;;;9.77;6.35;;;13.60;99.90;;;;;;5142459;27;20423;-36
2023/09/30 05:13:25;;;;;;;8.35;6.63;;;13.60;99.90;;;;;;5136334;27;20027;-35
2023/09/30 05:15:51;;;;;;;11.38;7.53;;;13.60;99.90;;;;;;5131969;27;20436;-36
2023/09/30 05:18:17;;;;;;;9.52;7.50;;;13.60;99.90;;;;;;5149206;27;20033;-36
2023/09/30 05:20:43;;;;;;;10.77;7.45;;;13.60;99.90;;;;;;5117929;27;20109;-36
2023/09/30 05:23:12;;;;;;;11.43;7.38;;;13.60;99.90;;;;;;5159326;27;20015;-35
2023/09/30 05:25:42;;;;;;;11.38;7.95;;;13.60;99.90;;;;;;5149227;27;20030;-36
2023/09/30 05:28:09;;;;;;;11.35;8.25;;;13.60;99.90;;;;;;5153451;27;20045;-35
2023/09/30 05:30:34;;;;;;;10.55;7.15;;;13.60;99.90;;;;;;5120343;27;20029;-39
2023/09/30 05:33:01;;;;;;;11.77;7.90;;;13.60;99.90;;;;;;5062821;27;20052;-38
2023/09/30 05:35:28;;;;;;;10.75;7.68;;;13.60;99.90;;;;;;5123127;27;20025;-36
2023/09/30 05:37:53;;;;;;;9.63;7.53;;;13.60;99.90;;;;;;5061299;28;20024;-35
2023/09/30 05:40:23;;;;;;;8.45;6.47;;;13.60;99.90;;;;;;5126897;27;21035;-34
2023/09/30 05:42:49;;;;;;;10.40;6.97;;;13.60;99.90;;;;;;5060891;27;20027;-35
2023/09/30 05:45:15;;;;;;;9.15;6.18;;;13.60;99.90;;;;;;5126094;27;20034;-35
2023/09/30 05:47:41;;;;;;;7.43;6.40;;;13.60;99.90;;;;;;5061401;27;20025;-36
2023/09/30 05:50:09;;;;;;;11.30;7.05;;;13.50;99.90;;;;;;5112179;27;20087;-36
2023/09/30 05:52:34;;;;;;;9.45;6.40;;;13.50;99.90;;;;;;5073884;27;20119;-36
2023/09/30 05:55:02;;;;;;;8.63;6.72;;;13.50;99.90;;;;;;5100113;27;20524;-37
2023/09/30 05:57:28;;;;;;;7.95;6.15;;;13.50;99.90;;;;;;5086264;27;20123;-35
2023/09/30 05:59:54;;;;;;;8.18;5.78;;;13.50;99.90;;;;;;5088239;27;20022;-34
2023/09/30 06:02:19;;;;;;;8.55;5.97;;;13.40;99.90;;;;;;5098384;27;20073;-35
2023/09/30 06:04:46;;;;;;;8.43;6.30;;;13.40;99.90;;;;;;5074781;27;20029;-36
2023/09/30 06:07:12;;;;;;;9.45;6.15;;;13.40;99.90;;;;;;5112626;27;20032;-35
2023/09/30 06:09:38;;;;;;;7.53;6.32;;;13.40;99.90;;;;;;5068177;27;20026;-36
2023/09/30 06:12:06;;;;;;;8.50;6.07;;;13.40;99.90;;;;;;5119569;27;20025;-35
2023/09/30 06:14:32;;;;;;;7.57;5.95;;;13.30;99.90;;;;;;5066139;27;20823;-35
2023/09/30 06:16:57;;;;;;;8.13;6.15;;;13.30;99.90;;;;;;5110449;27;20022;-34
2023/09/30 06:19:25;;;;;;;8.18;6.30;;;13.30;99.90;;;;;;5170431;27;20074;-35
2023/09/30 06:21:51;;;;;;;8.63;6.50;;;13.30;99.90;;;;;;5104463;27;20021;-35
2023/09/30 06:24:19;;;;;;;7.38;6.30;;;13.30;99.90;;;;;;5144757;27;20032;-34
2023/09/30 06:26:45;;;;;;;8.98;6.00;;;13.30;99.90;;;;;;5131077;27;20038;-36
2023/09/30 06:29:11;;;;;;;8.32;5.85;;;13.30;99.90;;;;;;5064300;28;20454;-36
2023/09/30 06:31:37;;;;;;;9.82;6.28;;;13.30;99.90;;;;;;5121332;27;20410;-35
2023/09/30 06:34:04;;;;;;;8.25;6.50;;;13.30;99.90;;;;;;5072783;27;20527;-35
2023/09/30 06:36:29;;;;;;;7.80;6.13;;;13.30;99.90;;;;;;5109108;27;20366;-35
2023/09/30 06:38:55;;;;;;;8.65;6.47;;;13.30;99.90;;;;;;5085239;27;20021;-35
2023/09/30 06:41:22;;;;;;;7.30;5.78;;;13.40;99.90;;;;;;5093635;27;20029;-35
2023/09/30 06:43:48;;;;;;;7.35;6.50;;;13.40;99.90;;;;;;5098387;27;20029;-34
2023/09/30 06:46:15;;;;;;;7.00;5.72;;;13.40;99.90;;;;;;5081046;27;20024;-35
2023/09/30 06:48:41;;;;;;;8.07;6.30;;;13.40;99.90;;;;;;5110967;27;20021;-34
2023/09/30 06:51:06;;;;;;;7.72;6.05;;;13.40;99.90;;;;;;5070830;27;20028;-35
2023/09/30 06:53:32;;;;;;;8.57;5.68;;;13.50;99.90;;;;;;5122657;27;20075;-35
2023/09/30 06:55:58;;;;;;;6.78;5.80;;;13.50;99.90;;;;;;5070878;27;20111;-35
2023/09/30 06:58:23;;;;;;;7.82;5.75;;;13.50;99.90;;;;;;5122837;27;20108;-34
2023/09/30 07:00:50;;;;;;;7.25;6.10;;;13.50;99.90;;;;;;5063614;28;20478;-34
2023/09/30 07:03:17;;;;;;;8.65;6.50;;;13.50;99.90;;;;;;5102832;27;20480;-33
2023/09/30 07:05:43;;;;;;;8.43;6.22;;;13.60;99.90;;;;;;5169401;27;20865;-35
2023/09/30 07:08:10;;;;;;;8.23;6.35;;;13.60;99.90;;;;;;5102110;27;20060;-35
2023/09/30 07:10:35;;;;;;;9.65;6.50;;;13.60;99.90;;;;;;5169798;27;20022;-36
2023/09/30 07:13:06;;;;;;;8.48;6.38;;;13.60;99.90;;;;;;5109764;27;20389;-33
2023/09/30 07:15:32;;;;;;;9.13;6.20;;;13.70;99.90;;;;;;5165468;27;20022;-34
2023/09/30 07:17:57;;;;;;;7.68;5.60;;;13.70;99.90;;;;;;5121224;27;20058;-35
2023/09/30 07:20:23;;;;;;;8.43;6.25;;;13.70;99.90;;;;;;5150898;27;20023;-34
2023/09/30 07:22:49;;;;;;;8.18;6.07;;;13.70;99.90;;;;;;5134859;27;20364;-36
2023/09/30 07:25:16;;;;;;;7.85;5.85;;;13.70;99.90;;;;;;5073337;27;20067;-36
2023/09/30 07:27:44;;;;;;;6.32;5.40;;;13.80;99.90;;;;;;5084056;27;20095;-34
2023/09/30 07:30:12;;;;;;;6.63;4.88;;;13.80;99.90;;;;;;5104751;27;20016;-34
2023/09/30 07:32:38;;;;;;;8.18;5.13;;;13.80;99.90;;;;;;5073891;27;20436;-34
2023/09/30 07:35:04;;;;;;;7.07;5.30;;;13.80;99.90;;;;;;5117142;27;20115;-34
2023/09/30 07:37:29;;;;;;;5.95;4.93;;;13.90;99.90;;;;;;5070569;27;20026;-42
2023/09/30 07:39:55;;;;;;;5.35;4.43;;;13.90;99.90;;;;;;5122673;27;20025;-35
2023/09/30 07:42:22;;;;;;;5.88;5.22;;;13.90;99.90;;;;;;5065969;27;20029;-35
2023/09/30 07:44:48;;;;;;;7.75;5.45;;;13.90;99.90;;;;;;5124949;27;20017;-35
2023/09/30 07:47:14;;;;;;;8.30;6.05;;;14.00;99.90;;;;;;5062926;28;20051;-35
2023/09/30 07:49:40;;;;;;;5.93;5.28;;;14.00;99.90;;;;;;5129022;27;20018;-35
2023/09/30 07:52:06;;;;;;;6.47;5.45;;;14.10;99.90;;;;;;5062747;27;20049;-35
2023/09/30 07:54:31;;;;;;;7.35;5.47;;;14.10;99.90;;;;;;5126955;27;20022;-34
2023/09/30 07:56:58;;;;;;;8.48;6.55;;;14.10;99.90;;;;;;5064416;27;20093;-34
2023/09/30 07:59:25;;;;;;;6.68;5.32;;;14.20;99.90;;;;;;5115046;27;20042;-35
2023/09/30 08:01:51;;;;;;;6.80;5.47;;;14.20;99.90;;;;;;5076167;27;20398;-34
2023/09/30 08:04:17;;;;;;;8.85;5.78;;;14.30;99.90;;;;;;5099987;27;20030;-34
2023/09/30 08:06:43;;;;;;;6.93;5.80;;;14.30;99.90;;;;;;5090716;27;20024;-35
2023/09/30 08:09:11;;;;;;;9.00;5.93;;;14.40;99.90;;;;;;5086213;27;20493;-35
2023/09/30 08:11:37;;;;;;;8.27;6.13;;;14.40;99.90;;;;;;5102600;27;20368;-36
2023/09/30 08:14:06;;;;;;;8.65;5.85;;;14.50;99.90;;;;;;5074964;27;20024;-35
2023/09/30 08:16:33;;;;;;;7.95;5.40;;;14.50;99.90;;;;;;5112944;27;20479;-35
2023/09/30 08:18:58;;;;;;;8.10;5.43;;;14.60;99.90;;;;;;5069805;27;20029;-35
2023/09/30 08:21:24;;;;;;;7.10;5.07;;;14.70;99.90;;;;;;5122214;27;20033;-36
2023/09/30 08:23:49;;;;;;;8.63;5.93;;;14.80;99.90;;;;;;5069489;27;20470;-36
2023/09/30 08:26:15;;;;;;;7.43;5.05;;;14.80;99.90;;;;;;5120845;27;20029;-36
2023/09/30 08:28:40;;;;;;;9.50;5.72;;;14.90;99.90;;;;;;5063215;28;20143;-35
2023/09/30 08:31:06;;;;;;;9.30;5.63;;;15.00;99.90;;;;;;5128003;27;20030;-36
2023/09/30 08:33:32;;;;;;;7.55;5.32;;;15.00;99.90;;;;;;5062723;28;20036;-35
2023/09/30 08:36:07;;;;;;;7.80;5.35;;;15.10;99.90;;;;;;5128994;27;20505;-36
2023/09/30 08:38:40;;;;;;;10.68;5.65;;;15.20;99.90;;;;;;5062264;28;20033;-35
2023/09/30 08:41:07;;;;;;;10.95;6.53;;;15.20;99.90;;;;;;5127111;27;20085;-35
2023/09/30 08:43:38;;;;;;;8.10;5.57;;;15.20;99.90;;;;;;5062930;27;20047;-34
2023/09/30 08:46:04;;;;;;;7.30;5.07;;;15.30;99.90;;;;;;5117096;27;20461;-35
2023/09/30 08:48:34;;;;;;;9.27;5.10;;;15.30;99.90;;;;;;5072264;27;20029;-35
2023/09/30 08:51:00;;;;;;;9.18;5.13;;;15.30;99.90;;;;;;5105672;27;20091;-35
2023/09/30 08:53:28;;;;;;;8.18;5.63;;;15.40;99.90;;;;;;5082403;27;20371;-34
2023/09/30 08:55:55;;;;;;;8.25;5.82;;;15.50;99.90;;;;;;5084014;27;20052;-35
2023/09/30 08:58:23;;;;;;;10.63;5.75;;;15.60;99.90;;;;;;5134438;27;20042;-35
2023/09/30 09:00:50;;;;;;;10.40;5.90;;;15.70;99.90;;;;;;5144725;27;20052;-35
2023/09/30 09:03:17;;;;;;;8.43;5.25;;;15.80;99.90;;;;;;5123936;27;20018;-35
2023/09/30 09:05:43;;;;;;;8.30;5.50;;;15.80;99.90;;;;;;5156359;27;20025;-35
2023/09/30 09:08:09;;;;;;;9.40;5.63;;;15.80;99.90;;;;;;5111882;27;20018;-35
2023/09/30 09:10:35;;;;;;;6.60;4.88;;;15.90;99.90;;;;;;5160576;27;20048;-35
2023/09/30 09:13:00;;;;;;;8.48;4.90;;;16.00;99.90;;;;;;5107282;27;20030;-35
2023/09/30 09:15:28;;;;;;;8.88;6.07;;;16.00;99.90;;;;;;5164363;27;20022;-34
2023/09/30 09:17:54;;;;;;;6.25;4.75;;;16.00;99.90;;;;;;5106161;27;20015;-36
2023/09/30 09:20:25;;;;;;;7.45;6.07;;;16.10;99.90;;;;;;5166476;27;20026;-35
2023/09/30 09:22:55;;;;;;;9.40;5.78;;;16.10;99.90;;;;;;5101130;27;20054;-34
2023/09/30 09:25:22;;;;;;;6.82;5.18;;;16.20;99.90;;;;;;5106038;27;20042;-35
2023/09/30 09:27:49;;;;;;;9.68;5.88;;;16.20;99.90;;;;;;5127406;27;20478;-35
2023/09/30 09:30:18;;;;;;;8.52;5.85;;;16.20;99.90;;;;;;5061352;27;20458;-35
2023/09/30 09:33:07;;;;;;;7.75;4.55;;;16.30;99.90;;;;;;5122811;27;20054;-36
2023/09/30 09:35:34;;;;;;;6.78;5.55;;;16.30;99.90;;;;;;5166926;27;20795;-37
2023/09/30 09:38:07;;;;;;;7.30;4.30;;;16.40;99.90;;;;;;5101632;27;20032;-34
2023/09/30 09:40:33;;;;;;;7.38;4.90;;;16.40;99.90;;;;;;5040813;28;20350;-36
2023/09/30 09:43:02;;;;;;;9.35;5.20;;;16.50;99.90;;;;;;5112471;27;20097;-35
2023/09/30 09:45:28;;;;;;;9.00;5.38;;;16.50;99.90;;;;;;5068311;27;20387;-35
2023/09/30 09:47:54;;;;;;;6.78;5.35;;;16.60;99.90;;;;;;5105873;27;20022;-36
2023/09/30 09:50:21;;;;;;;9.02;5.60;;;16.50;99.90;;;;;;5083703;27;20025;-36
2023/09/30 09:52:53;;;;;;;10.52;5.68;;;16.60;99.90;;;;;;5097788;27;20377;-36
2023/09/30 09:55:20;;;;;;;11.20;5.97;;;16.60;99.90;;;;;;5093495;27;20060;-35
2023/09/30 09:57:46;;;;;;;9.77;5.97;;;16.70;99.90;;;;;;5089962;27;20014;-34
2023/09/30 10:00:18;;;;;;;8.20;5.90;;;16.70;99.90;;;;;;5105492;27;20429;-34
2023/09/30 10:02:46;;;;;;;7.82;4.80;;;16.70;99.90;;;;;;5079211;27;20036;-34
2023/09/30 10:05:12;;;;;;;7.80;5.43;;;16.80;99.90;;;;;;5113910;27;20035;-35
2023/09/30 10:07:49;;;;;;;7.13;4.88;;;16.90;99.90;;;;;;5072124;27;20060;-35
2023/09/30 10:10:18;;;;;;;7.22;5.68;;;16.90;99.90;;;;;;5104876;27;20105;-36
2023/09/30 10:12:44;;;;;;;7.80;5.45;;;17.00;99.90;;;;;;5163595;27;20119;-36
2023/09/30 10:15:25;;;;;;;7.78;5.70;;;17.00;99.90;;;;;;5111371;27;20097;-34
2023/09/30 10:18:04;;;;;;;7.95;5.30;;;17.00;99.90;;;;;;5162828;27;20024;-36
2023/09/30 10:20:41;;;;;;;7.28;5.63;;;17.10;99.90;;;;;;5101482;27;20051;-36
2023/09/30 10:23:21;;;;;;;8.07;5.47;;;17.10;99.90;;;;;;5161745;27;20428;-36
2023/09/30 10:25:48;;;;;;;7.85;4.85;;;17.20;99.90;;;;;;5134319;27;20054;-35
2023/09/30 10:28:37;;;;;;;8.20;4.22;;;17.30;99.90;;;;;;5162452;27;20099;-37
2023/09/30 10:31:16;;;;;;;8.57;5.80;;;17.40;99.90;;;;;;5110459;27;20052;-36
2023/09/30 10:34:01;;;;;;;7.18;4.30;;;17.40;99.90;;;;;;5158603;27;20046;-35
2023/09/30 10:36:28;;;;;;;6.13;4.10;;;17.50;99.90;;;;;;5129411;27;20595;-36
2023/09/30 10:38:53;;;;;;;11.43;6.15;;;17.60;99.90;;;;;;5157674;27;20018;-36
2023/09/30 10:41:50;;;;;;;8.35;5.25;;;17.70;99.90;;;;;;5116320;27;20137;-35
2023/09/30 10:44:29;;;;;;;7.53;4.38;;;17.90;99.90;;;;;;5148014;27;20010;-34
2023/09/30 10:47:21;;;;;;;9.48;5.32;;;18.00;99.90;;;;;;5135977;27;20026;-36
2023/09/30 10:49:47;;;;;;;8.73;4.72;;;18.20;99.90;;;;;;5101396;27;20052;-34
2023/09/30 10:52:25;;;;;;;6.85;4.05;;;18.30;99.90;;;;;;5139251;27;20567;-36
2023/09/30 10:54:51;;;;;;;9.32;4.18;;;18.50;99.90;;;;;;5137886;27;20124;-36
2023/09/30 10:57:29;;;;;;;6.95;4.22;;;18.70;99.90;;;;;;5135747;27;20113;-36
2023/09/30 11:00:08;;;;;;;6.07;3.78;;;18.80;99.90;;;;;;5142364;27;20027;-35
2023/09/30 11:02:34;;;;;;;6.50;3.58;;;18.90;99.90;;;;;;5140721;27;20739;-37
2023/09/30 11:05:09;;;;;;;5.55;3.15;;;19.00;99.90;;;;;;5144622;27;20028;-36
2023/09/30 11:07:36;;;;;;;6.22;3.05;;;19.10;99.90;;;;;;5134094;27;20034;-36
2023/09/30 11:10:03;;;;;;;7.32;3.30;;;19.20;99.90;;;;;;5151748;27;20045;-36
2023/09/30 11:12:29;;;;;;;7.80;3.03;;;19.10;99.90;;;;;;5121270;27;20026;-35
2023/09/30 11:15:02;;;;;;;8.95;3.67;;;19.10;99.90;;;;;;5162242;27;20035;-39
2023/09/30 11:17:28;;;;;;;4.78;2.53;;;19.10;99.90;;;;;;5102737;27;20105;-36
2023/09/30 11:19:54;;;;;;;5.93;3.40;;;19.00;99.90;;;;;;5161640;27;20032;-37
2023/09/30 11:22:21;;;;;;;5.93;2.92;;;19.00;99.90;;;;;;5109390;27;20018;-35
2023/09/30 11:24:47;;;;;;;5.80;2.88;;;19.00;99.90;;;;;;5144962;27;20020;-36
2023/09/30 11:27:13;;;;;;;6.30;2.85;;;19.00;99.90;;;;;;5125066;27;20050;-35
2023/09/30 11:29:49;;;;;;;4.55;2.60;;;19.00;99.90;;;;;;5063737;28;20059;-36
2023/09/30 11:32:26;;;;;;;4.38;2.58;;;19.00;99.90;;;;;;5101874;27;20038;-36
2023/09/30 11:34:53;;;;;;;5.68;2.55;;;19.00;99.90;;;;;;5169167;27;20031;-36
2023/09/30 11:37:18;;;;;;;4.45;2.00;;;19.00;99.90;;;;;;5101813;27;20028;-35
2023/09/30 11:39:44;;;;;;;4.30;2.40;;;19.10;99.90;;;;;;5168890;27;20155;-35
2023/09/30 11:42:19;;;;;;;4.22;1.85;;;19.20;99.90;;;;;;5102345;27;20059;-35
2023/09/30 11:44:49;;;;;;;4.38;2.20;;;19.30;99.90;;;;;;5043166;28;20772;-35
2023/09/30 11:47:16;;;;;;;3.67;2.35;;;19.50;99.90;;;;;;5120251;27;20030;-36
2023/09/30 11:49:44;;;;;;;6.20;2.33;;;19.60;99.90;;;;;;5067097;27;20021;-36
2023/09/30 11:52:16;;;;;;;3.70;2.38;;;19.70;99.90;;;;;;5112173;27;20793;-35
2023/09/30 11:54:44;;;;;;;5.70;2.40;;;19.70;99.90;;;;;;5073344;27;20709;-35
2023/09/30 11:57:17;;;;;;;5.97;2.05;;;19.70;99.90;;;;;;5104004;27;20022;-35
2023/09/30 11:59:46;;;;;;;5.40;2.45;;;19.80;99.90;;;;;;5081652;27;20054;-35
2023/09/30 12:02:14;;;;;;;6.22;2.08;;;19.80;99.90;;;;;;5097412;27;20063;-36
2023/09/30 12:04:40;;;;;;;3.90;2.35;;;19.90;99.90;;;;;;5091336;27;20033;-35
2023/09/30 12:07:08;;;;;;;6.18;2.10;;;19.90;99.90;;;;;;5086416;27;20496;-34
2023/09/30 12:09:37;;;;;;;5.22;1.88;;;19.80;99.90;;;;;;5101395;27;20463;-35
2023/09/30 12:12:03;;;;;;;7.43;2.10;;;19.90;99.90;;;;;;5076105;27;20047;-36
2023/09/30 12:14:30;;;;;;;4.35;2.10;;;20.00;99.90;;;;;;5113664;27;20031;-36
2023/09/30 12:16:56;;;;;;;4.60;2.15;;;20.00;99.90;;;;;;5069031;27;20081;-37
2023/09/30 12:19:22;;;;;;;2.42;1.60;;;20.10;99.90;;;;;;5121441;27;20033;-35
2023/09/30 12:21:48;;;;;;;5.70;2.17;;;20.10;99.90;;;;;;5069589;27;20028;-35
2023/09/30 12:24:21;;;;;;;4.45;2.08;;;20.10;99.90;;;;;;5120733;27;20107;-36
2023/09/30 12:26:48;;;;;;;4.18;1.90;;;20.10;99.90;;;;;;5044553;27;20032;-36
2023/09/30 12:29:17;;;;;;;4.25;2.10;;;20.10;99.90;;;;;;5100521;27;20028;-35
2023/09/30 12:31:44;;;;;;;3.38;2.05;;;20.00;99.90;;;;;;5153852;27;20038;-36
2023/09/30 12:34:11;;;;;;;7.70;2.58;;;20.00;99.90;;;;;;5063866;27;20036;-35
2023/09/30 12:36:36;;;;;;;4.88;1.90;;;19.90;99.90;;;;;;5055296;28;20025;-37
2023/09/30 12:39:10;;;;;;;3.47;1.80;;;19.90;99.90;;;;;;5061300;27;20027;-36
2023/09/30 12:41:42;;;;;;;3.80;2.10;;;19.90;99.90;;;;;;5062462;27;20492;-35
2023/09/30 12:44:08;;;;;;;6.55;2.17;;;19.80;99.90;;;;;;5066457;27;20036;-34
2023/09/30 12:46:36;;;;;;;4.50;2.08;;;19.80;99.90;;;;;;5063003;27;20031;-35